Time;durP1;ratioP1;P1;durP2;ratioP2;P2;SDS_P1;SDS_P2;PMS_P1;PMS_P2;Temp;Humidity;BMP_temperature;BMP_pressure;BME280_temperature;BME280_humidity;BME280_pressure;Samples;Min_cycle;Max_cycle;Signal;HPM_P1;HPM_P2
2023/05/24 00:00:39;;;;;;;27.27;4.15;;;10.30;88.60;;;;;;5069404;28;20390;-66
2023/05/24 00:03:06;;;;;;;21.35;3.80;;;10.40;90.60;;;;;;5051981;28;20041;-65
2023/05/24 00:05:32;;;;;;;23.95;4.18;;;10.40;90.90;;;;;;5055858;28;20045;-74
2023/05/24 00:07:58;;;;;;;23.90;4.55;;;10.40;91.10;;;;;;5045657;28;20056;-73
2023/05/24 00:10:25;;;;;;;27.67;4.63;;;10.40;91.60;;;;;;5052876;28;20750;-64
2023/05/24 00:12:50;;;;;;;30.45;4.47;;;10.40;92.60;;;;;;5070637;28;20055;-72
2023/05/24 00:15:16;;;;;;;25.52;4.20;;;10.30;91.50;;;;;;5070687;28;20048;-67
2023/05/24 00:17:42;;;;;;;25.27;4.80;;;10.40;90.00;;;;;;5064867;28;20434;-71
2023/05/24 00:20:10;;;;;;;22.48;4.65;;;10.40;87.30;;;;;;5041856;28;20090;-74
2023/05/24 00:22:37;;;;;;;21.92;3.90;;;10.40;89.80;;;;;;5060640;28;20113;-73
2023/05/24 00:25:04;;;;;;;20.55;4.68;;;10.30;87.70;;;;;;5073152;28;20040;-75
2023/05/24 00:27:30;;;;;;;25.58;4.78;;;10.30;85.20;;;;;;5054657;28;20423;-67
2023/05/24 00:29:56;;;;;;;25.17;5.40;;;10.30;83.70;;;;;;5073724;28;20050;-74
2023/05/24 00:32:22;;;;;;;23.15;4.60;;;10.20;85.30;;;;;;5059054;28;20127;-65
2023/05/24 00:34:48;;;;;;;24.35;4.68;;;10.20;87.60;;;;;;5068068;28;20048;-66
2023/05/24 00:37:14;;;;;;;28.75;4.85;;;10.20;88.50;;;;;;5060101;28;20496;-71
2023/05/24 00:39:40;;;;;;;28.63;5.22;;;10.20;90.20;;;;;;5072636;28;20056;-71
2023/05/24 00:42:07;;;;;;;22.75;4.32;;;10.10;90.80;;;;;;5073364;28;20040;-66
2023/05/24 00:44:33;;;;;;;22.27;4.28;;;10.10;91.20;;;;;;5073092;28;20498;-64
2023/05/24 00:46:59;;;;;;;21.48;4.78;;;10.10;91.90;;;;;;5073655;28;20032;-71
2023/05/24 00:49:25;;;;;;;26.02;4.03;;;10.10;93.60;;;;;;5065517;28;20044;-70
2023/05/24 00:51:53;;;;;;;16.90;3.47;;;10.10;95.10;;;;;;5081649;28;20053;-65
2023/05/24 00:54:19;;;;;;;24.70;5.05;;;10.10;95.50;;;;;;5060085;28;20052;-67
2023/05/24 00:56:47;;;;;;;25.48;4.25;;;10.10;91.90;;;;;;5046732;28;20032;-64
2023/05/24 00:59:13;;;;;;;23.30;4.28;;;10.10;86.60;;;;;;5071379;28;20580;-74
2023/05/24 01:01:40;;;;;;;18.35;4.40;;;10.10;80.60;;;;;;5080961;28;20101;-71
2023/05/24 01:04:06;;;;;;;24.13;4.18;;;10.20;79.30;;;;;;5070547;28;20047;-66
2023/05/24 01:06:44;;;;;;;22.15;4.13;;;10.20;79.30;;;;;;5068603;28;20493;-68
2023/05/24 01:09:22;;;;;;;19.60;3.88;;;10.20;82.70;;;;;;5068269;28;20055;-78
2023/05/24 01:12:17;;;;;;;13.82;3.20;;;10.20;80.90;;;;;;5079009;28;20051;-69
2023/05/24 01:14:56;;;;;;;19.73;4.32;;;10.30;77.20;;;;;;5039164;28;20096;-71
2023/05/24 01:17:31;;;;;;;24.53;4.30;;;10.30;75.70;;;;;;5052553;28;20050;-67
2023/05/24 01:20:05;;;;;;;28.83;4.32;;;10.40;75.40;;;;;;5049687;28;20403;-72
2023/05/24 01:23:14;;;;;;;23.77;4.28;;;10.40;78.50;;;;;;5066738;28;20123;-73
2023/05/24 01:26:02;;;;;;;24.77;4.55;;;10.50;78.10;;;;;;5028115;28;20072;-72
2023/05/24 01:28:30;;;;;;;23.25;4.13;;;10.40;72.80;;;;;;5061701;28;20102;-73
2023/05/24 01:30:57;;;;;;;20.67;4.05;;;10.40;71.60;;;;;;5066217;28;20076;-69
2023/05/24 01:33:23;;;;;;;26.25;4.05;;;10.50;65.70;;;;;;5065488;28;20045;-71
2023/05/24 01:35:49;;;;;;;16.25;3.22;;;10.50;66.30;;;;;;5070149;28;20071;-67
2023/05/24 01:38:15;;;;;;;22.33;4.20;;;10.50;63.70;;;;;;5065196;28;20052;-74
2023/05/24 01:40:41;;;;;;;13.30;3.45;;;10.60;70.10;;;;;;5065292;28;20080;-69
2023/05/24 01:43:30;;;;;;;18.17;3.38;;;10.60;66.00;;;;;;5049321;28;20487;-69
2023/05/24 01:46:33;;;;;;;19.10;3.55;;;10.60;58.60;;;;;;5055770;28;20446;-68
2023/05/24 01:49:05;;;;;;;22.63;4.55;;;10.60;61.30;;;;;;5047360;28;20053;-65
2023/05/24 01:51:40;;;;;;;22.30;4.22;;;10.60;59.30;;;;;;5065386;28;20052;-70
2023/05/24 01:54:06;;;;;;;19.75;3.35;;;10.60;58.20;;;;;;5048600;28;20904;-68
2023/05/24 01:56:33;;;;;;;20.00;4.10;;;10.60;60.70;;;;;;5056528;28;20132;-71
2023/05/24 01:59:00;;;;;;;21.40;4.60;;;10.60;64.70;;;;;;5065113;28;20554;-70
2023/05/24 02:01:26;;;;;;;17.77;3.92;;;10.60;68.70;;;;;;5044769;28;20092;-66
2023/05/24 02:03:52;;;;;;;19.65;4.80;;;10.60;70.10;;;;;;5022231;28;20123;-74
2023/05/24 02:06:18;;;;;;;19.65;3.58;;;10.70;67.30;;;;;;5050759;28;20039;-66
2023/05/24 02:08:45;;;;;;;23.10;3.42;;;10.60;65.20;;;;;;5051528;28;20079;-68
2023/05/24 02:11:11;;;;;;;13.35;3.55;;;10.60;67.00;;;;;;5050809;28;20609;-66
2023/05/24 02:13:37;;;;;;;25.17;4.68;;;10.60;69.40;;;;;;5059320;28;20158;-74
2023/05/24 02:16:03;;;;;;;14.10;3.10;;;10.60;65.80;;;;;;5033765;28;20076;-70
2023/05/24 02:18:33;;;;;;;20.08;4.25;;;10.60;64.60;;;;;;5054612;28;20511;-68
2023/05/24 02:21:01;;;;;;;20.35;4.10;;;10.60;65.70;;;;;;5053307;28;20146;-66
2023/05/24 02:23:27;;;;;;;28.58;3.75;;;10.60;59.60;;;;;;5047744;28;20044;-66
2023/05/24 02:25:54;;;;;;;24.40;4.82;;;10.60;54.20;;;;;;5045397;28;20178;-75
2023/05/24 02:28:19;;;;;;;24.40;3.88;;;10.60;50.70;;;;;;5044791;28;20052;-82
2023/05/24 02:30:46;;;;;;;16.33;3.47;;;10.60;59.40;;;;;;5041119;28;20850;-67
2023/05/24 02:33:12;;;;;;;23.80;4.03;;;10.60;57.60;;;;;;5043488;28;20495;-70
2023/05/24 02:35:40;;;;;;;23.33;4.20;;;10.70;61.20;;;;;;5055723;28;20440;-67
2023/05/24 02:38:06;;;;;;;21.88;4.50;;;10.70;63.50;;;;;;5065074;28;20126;-64
2023/05/24 02:40:32;;;;;;;24.75;4.35;;;10.70;62.80;;;;;;5063467;28;20139;-73
2023/05/24 02:42:57;;;;;;;20.98;4.35;;;10.70;64.40;;;;;;5045824;28;20134;-66
2023/05/24 02:45:23;;;;;;;23.90;3.72;;;10.70;67.10;;;;;;5064084;28;20052;-71
2023/05/24 02:47:49;;;;;;;21.55;3.45;;;10.70;71.50;;;;;;5048612;28;20098;-67
2023/05/24 02:50:15;;;;;;;31.23;4.43;;;10.70;70.70;;;;;;5047825;28;20461;-67
2023/05/24 02:52:41;;;;;;;17.67;3.38;;;10.70;68.00;;;;;;5064291;28;20052;-73
2023/05/24 02:55:07;;;;;;;17.23;3.30;;;10.60;67.60;;;;;;5015033;28;20117;-71
2023/05/24 02:57:33;;;;;;;24.65;3.58;;;10.60;61.10;;;;;;5064121;28;20056;-66
2023/05/24 03:00:00;;;;;;;31.60;5.47;;;10.50;60.00;;;;;;5047840;28;20501;-67
2023/05/24 03:02:28;;;;;;;26.52;4.00;;;10.50;55.70;;;;;;5063433;28;20526;-68
2023/05/24 03:04:54;;;;;;;21.98;2.80;;;10.50;55.80;;;;;;5064373;28;20041;-72
2023/05/24 03:07:20;;;;;;;22.60;4.15;;;10.50;55.10;;;;;;5063948;28;20080;-70
2023/05/24 03:09:46;;;;;;;17.60;3.45;;;10.60;58.60;;;;;;5055905;28;20091;-71
2023/05/24 03:12:12;;;;;;;19.42;3.75;;;10.60;59.80;;;;;;5040844;28;20072;-65
2023/05/24 03:14:38;;;;;;;18.70;3.83;;;10.60;59.90;;;;;;5049942;28;20370;-77
2023/05/24 03:17:04;;;;;;;22.98;3.92;;;10.60;56.30;;;;;;5035086;28;20040;-70
2023/05/24 03:19:30;;;;;;;17.90;3.92;;;10.60;53.80;;;;;;5046939;28;20154;-72
2023/05/24 03:21:56;;;;;;;21.98;4.00;;;10.60;54.90;;;;;;5063746;28;20538;-71
2023/05/24 03:24:28;;;;;;;19.90;3.85;;;10.60;50.70;;;;;;5056998;28;20091;-77
2023/05/24 03:26:53;;;;;;;17.25;3.20;;;10.60;52.50;;;;;;5064135;28;20214;-77
2023/05/24 03:29:19;;;;;;;20.02;3.58;;;10.60;53.70;;;;;;5063544;28;20147;-68
2023/05/24 03:31:45;;;;;;;23.58;5.07;;;10.70;54.80;;;;;;5063632;28;20486;-65
2023/05/24 03:34:11;;;;;;;20.85;4.13;;;10.60;58.40;;;;;;5041865;28;20125;-66
2023/05/24 03:36:37;;;;;;;16.92;3.83;;;10.70;59.60;;;;;;5046620;28;20044;-67
2023/05/24 03:39:03;;;;;;;19.30;3.45;;;10.70;58.80;;;;;;5064164;28;20454;-76
2023/05/24 03:41:30;;;;;;;23.52;3.67;;;10.70;59.90;;;;;;5063201;28;20041;-70
2023/05/24 03:43:55;;;;;;;12.50;3.15;;;10.70;58.70;;;;;;5048450;28;20041;-67
2023/05/24 03:46:21;;;;;;;14.75;2.83;;;10.70;57.30;;;;;;5030192;28;20041;-76
2023/05/24 03:48:47;;;;;;;21.73;3.28;;;10.70;56.70;;;;;;5047303;28;20033;-68
2023/05/24 03:51:14;;;;;;;22.95;4.60;;;10.80;60.10;;;;;;5063470;28;20044;-67
2023/05/24 03:53:39;;;;;;;25.23;3.92;;;10.80;57.60;;;;;;5046390;28;20114;-74
2023/05/24 03:56:05;;;;;;;24.27;4.28;;;10.80;58.10;;;;;;5044889;28;20052;-68
2023/05/24 03:58:31;;;;;;;22.30;4.07;;;10.70;61.10;;;;;;5063010;28;20075;-77
2023/05/24 04:00:57;;;;;;;19.23;3.47;;;10.80;65.40;;;;;;5064514;28;20698;-66
2023/05/24 04:03:24;;;;;;;16.90;3.83;;;10.80;68.30;;;;;;5046151;28;20056;-66
2023/05/24 04:05:51;;;;;;;24.83;3.75;;;10.80;67.60;;;;;;5062330;28;20129;-75
2023/05/24 04:08:16;;;;;;;26.75;4.10;;;10.80;63.80;;;;;;5062950;28;20372;-65
2023/05/24 04:10:42;;;;;;;20.05;3.25;;;10.90;66.40;;;;;;5032552;28;20060;-71
2023/05/24 04:13:08;;;;;;;28.88;4.43;;;10.90;71.00;;;;;;5063517;28;20044;-68
2023/05/24 04:15:34;;;;;;;21.45;3.65;;;10.90;74.60;;;;;;5059864;28;20041;-71
2023/05/24 04:18:01;;;;;;;24.52;4.40;;;10.90;78.40;;;;;;5043492;28;20060;-72
2023/05/24 04:20:28;;;;;;;24.95;4.18;;;11.00;85.40;;;;;;5055377;28;20495;-72
2023/05/24 04:22:54;;;;;;;19.95;3.80;;;11.00;82.30;;;;;;5066564;28;20048;-74
2023/05/24 04:25:21;;;;;;;24.35;3.80;;;11.00;75.20;;;;;;5066261;28;20056;-75
2023/05/24 04:27:47;;;;;;;23.75;4.65;;;10.90;78.00;;;;;;5066479;28;20123;-77
2023/05/24 04:30:14;;;;;;;29.98;4.32;;;10.90;65.00;;;;;;5049044;28;20037;-68
2023/05/24 04:32:43;;;;;;;24.40;4.15;;;10.90;64.20;;;;;;5069155;28;20084;-76
2023/05/24 04:35:09;;;;;;;16.35;3.95;;;10.90;65.50;;;;;;5054611;28;20457;-74
2023/05/24 04:37:35;;;;;;;28.55;4.85;;;10.90;64.50;;;;;;5053629;28;20040;-72
2023/05/24 04:40:03;;;;;;;14.07;3.10;;;11.00;68.00;;;;;;5054823;28;20051;-70
2023/05/24 04:42:30;;;;;;;21.33;3.72;;;11.00;59.10;;;;;;5040777;28;20052;-74
2023/05/24 04:44:56;;;;;;;24.63;4.05;;;11.10;58.40;;;;;;5067608;28;20409;-69
2023/05/24 04:47:23;;;;;;;20.98;4.32;;;11.20;62.60;;;;;;5059062;28;20501;-66
2023/05/24 04:49:49;;;;;;;19.23;3.75;;;11.10;63.00;;;;;;5055476;28;20076;-74
2023/05/24 04:52:16;;;;;;;16.08;3.53;;;11.10;63.70;;;;;;5053604;28;20048;-69
2023/05/24 04:54:41;;;;;;;22.38;4.10;;;11.10;57.60;;;;;;5069639;28;20044;-68
2023/05/24 04:57:07;;;;;;;19.75;4.53;;;11.10;60.70;;;;;;5069958;28;20044;-71
2023/05/24 04:59:33;;;;;;;21.60;4.22;;;11.10;63.20;;;;;;5056238;28;20087;-69
2023/05/24 05:01:59;;;;;;;22.08;3.88;;;11.10;62.20;;;;;;5067312;28;20071;-74
2023/05/24 05:04:24;;;;;;;19.00;3.58;;;11.10;62.90;;;;;;5066112;28;20048;-71
2023/05/24 05:06:51;;;;;;;16.95;3.25;;;11.20;67.10;;;;;;5069699;28;20054;-73
2023/05/24 05:09:17;;;;;;;19.73;4.03;;;11.10;65.20;;;;;;5065734;28;20083;-71
2023/05/24 05:11:45;;;;;;;23.55;4.43;;;11.20;71.40;;;;;;5043069;28;20122;-71
2023/05/24 05:14:11;;;;;;;26.35;3.83;;;11.20;69.80;;;;;;5069781;28;20056;-76
2023/05/24 05:16:38;;;;;;;27.98;4.25;;;11.20;68.80;;;;;;5069418;28;20050;-72
2023/05/24 05:19:04;;;;;;;25.63;4.35;;;11.30;71.60;;;;;;5052801;28;20462;-67
2023/05/24 05:21:33;;;;;;;19.70;3.75;;;11.30;70.90;;;;;;5052090;28;20522;-81
2023/05/24 05:24:00;;;;;;;30.20;4.73;;;11.20;70.20;;;;;;5032853;28;20521;-70
2023/05/24 05:26:27;;;;;;;20.50;4.70;;;11.20;70.80;;;;;;5049363;28;20055;-69
2023/05/24 05:28:55;;;;;;;16.27;3.33;;;11.20;71.10;;;;;;5060673;28;20039;-67
2023/05/24 05:31:22;;;;;;;19.15;3.58;;;11.10;66.60;;;;;;5069599;28;20062;-71
2023/05/24 05:33:48;;;;;;;20.00;4.00;;;11.10;70.40;;;;;;5068178;28;20070;-72
2023/05/24 05:36:15;;;;;;;20.30;3.75;;;11.20;69.30;;;;;;5052122;28;20048;-71
2023/05/24 05:38:40;;;;;;;25.85;4.13;;;11.20;70.10;;;;;;5048552;28;20048;-75
2023/05/24 05:41:07;;;;;;;19.45;3.60;;;11.30;62.90;;;;;;5062620;28;20036;-66
2023/05/24 05:43:33;;;;;;;18.52;3.92;;;11.40;63.30;;;;;;5052300;28;20048;-74
2023/05/24 05:46:01;;;;;;;21.60;3.90;;;11.40;58.40;;;;;;5069321;28;20044;-69
2023/05/24 05:48:27;;;;;;;21.23;4.78;;;11.50;56.70;;;;;;5048850;28;20040;-66
2023/05/24 05:50:53;;;;;;;23.23;4.80;;;11.50;54.40;;;;;;5059172;28;20047;-75
2023/05/24 05:53:18;;;;;;;18.35;3.85;;;11.50;59.70;;;;;;5052579;28;20433;-77
2023/05/24 05:55:44;;;;;;;21.75;3.40;;;11.50;51.90;;;;;;5068397;28;20048;-66
2023/05/24 05:58:11;;;;;;;19.48;4.47;;;11.50;58.30;;;;;;5064164;28;20046;-72
2023/05/24 06:00:39;;;;;;;20.35;4.30;;;11.50;62.80;;;;;;5035453;28;20044;-75
2023/05/24 06:03:05;;;;;;;21.88;3.65;;;11.50;55.80;;;;;;5063682;28;20428;-66
2023/05/24 06:05:31;;;;;;;26.73;3.90;;;11.50;66.50;;;;;;5047361;28;20097;-65
2023/05/24 06:07:57;;;;;;;18.08;3.35;;;11.50;65.40;;;;;;5065848;28;20050;-72
2023/05/24 06:10:22;;;;;;;20.00;3.95;;;11.50;65.00;;;;;;5058940;28;20040;-69
2023/05/24 06:12:48;;;;;;;19.75;3.97;;;11.50;64.50;;;;;;5066537;28;20043;-72
2023/05/24 06:15:14;;;;;;;23.15;4.40;;;11.50;65.80;;;;;;5052389;28;20381;-70
2023/05/24 06:17:45;;;;;;;16.85;3.47;;;11.50;65.20;;;;;;5068790;28;20094;-74
2023/05/24 06:20:14;;;;;;;17.15;3.63;;;11.50;66.40;;;;;;5069835;28;20052;-68
2023/05/24 06:22:41;;;;;;;18.23;3.88;;;11.50;67.00;;;;;;5044805;28;20116;-74
2023/05/24 06:25:07;;;;;;;19.33;4.07;;;11.50;69.10;;;;;;5028064;28;20495;-70
2023/05/24 06:27:33;;;;;;;21.95;3.13;;;11.50;71.90;;;;;;5042445;28;20049;-69
2023/05/24 06:29:59;;;;;;;19.60;3.58;;;11.60;73.80;;;;;;5041028;28;20480;-77
2023/05/24 06:32:25;;;;;;;16.48;3.75;;;11.70;80.90;;;;;;5003031;28;20056;-66
2023/05/24 06:34:51;;;;;;;20.95;4.32;;;11.70;83.90;;;;;;5022871;28;20052;-82
2023/05/24 06:37:16;;;;;;;20.70;4.15;;;11.70;77.60;;;;;;5018967;28;20049;-70
2023/05/24 06:39:42;;;;;;;20.48;3.70;;;11.80;77.00;;;;;;5028709;28;20052;-78
2023/05/24 06:42:08;;;;;;;11.60;2.97;;;11.80;72.30;;;;;;5027410;28;20487;-69
2023/05/24 06:44:34;;;;;;;22.08;2.97;;;11.80;75.30;;;;;;5044389;28;20158;-65
2023/05/24 06:47:00;;;;;;;21.52;3.78;;;11.80;72.80;;;;;;5042609;28;20049;-71
2023/05/24 06:49:26;;;;;;;23.42;4.60;;;11.80;72.70;;;;;;5048043;28;20040;-70
2023/05/24 06:51:52;;;;;;;18.42;3.90;;;11.90;74.00;;;;;;5044814;28;20044;-73
2023/05/24 06:54:18;;;;;;;23.05;4.00;;;11.90;75.10;;;;;;5044836;28;20128;-79
2023/05/24 06:56:44;;;;;;;19.58;3.38;;;12.00;76.60;;;;;;5010982;28;20554;-73
2023/05/24 06:59:10;;;;;;;22.35;3.28;;;12.00;75.20;;;;;;5010885;28;20458;-74
2023/05/24 07:01:41;;;;;;;18.88;3.92;;;12.00;67.70;;;;;;5030999;28;20045;-65
2023/05/24 07:04:08;;;;;;;17.95;3.20;;;12.00;63.90;;;;;;5012000;28;20071;-69
2023/05/24 07:06:34;;;;;;;13.80;3.75;;;12.00;65.80;;;;;;5044050;28;20121;-78
2023/05/24 07:09:03;;;;;;;24.00;3.50;;;12.00;62.00;;;;;;5009185;28;20130;-67
2023/05/24 07:11:31;;;;;;;21.80;3.40;;;12.10;66.60;;;;;;5040845;28;20101;-73
2023/05/24 07:13:57;;;;;;;17.98;3.20;;;12.00;65.30;;;;;;5037712;28;20376;-78
2023/05/24 07:16:23;;;;;;;21.23;3.53;;;12.00;65.30;;;;;;5028089;28;20045;-73
2023/05/24 07:18:48;;;;;;;18.30;3.50;;;12.10;67.40;;;;;;5027447;28;20912;-67
2023/05/24 07:21:14;;;;;;;13.30;3.35;;;12.10;59.60;;;;;;5033402;28;20413;-64
2023/05/24 07:23:40;;;;;;;12.57;3.05;;;12.10;61.10;;;;;;5061691;28;20061;-74
2023/05/24 07:26:06;;;;;;;16.15;3.10;;;12.20;59.10;;;;;;5062827;28;20101;-75
2023/05/24 07:28:32;;;;;;;13.88;3.85;;;12.20;61.60;;;;;;5063898;28;20036;-77
2023/05/24 07:30:57;;;;;;;20.88;3.88;;;12.20;55.50;;;;;;5062863;28;20813;-78
2023/05/24 07:33:23;;;;;;;17.38;2.90;;;12.50;59.20;;;;;;5044152;28;20044;-70
2023/05/24 07:35:52;;;;;;;18.73;3.05;;;12.70;55.70;;;;;;5065832;28;20519;-74
2023/05/24 07:38:18;;;;;;;12.80;3.03;;;13.00;47.60;;;;;;5047187;28;20891;-69
2023/05/24 07:40:44;;;;;;;14.23;3.05;;;13.50;49.40;;;;;;5046731;28;20088;-68
2023/05/24 07:43:10;;;;;;;18.88;3.10;;;13.90;45.50;;;;;;5063030;28;20045;-74
2023/05/24 07:45:36;;;;;;;10.35;2.67;;;13.90;36.40;;;;;;5047324;28;20050;-67
2023/05/24 07:48:02;;;;;;;18.55;3.42;;;13.90;35.40;;;;;;5058264;28;20127;-73
2023/05/24 07:50:28;;;;;;;14.57;3.20;;;14.10;29.90;;;;;;5046724;28;20155;-67
2023/05/24 07:52:58;;;;;;;27.98;3.50;;;14.30;30.10;;;;;;5062521;28;20064;-72
2023/05/24 07:55:23;;;;;;;13.80;3.65;;;14.60;36.50;;;;;;5063056;28;20041;-72
2023/05/24 07:57:49;;;;;;;15.23;3.20;;;14.90;30.00;;;;;;5043693;28;20060;-68
2023/05/24 08:00:16;;;;;;;13.15;3.13;;;15.10;22.90;;;;;;5059434;28;20040;-68
2023/05/24 08:02:42;;;;;;;17.60;3.63;;;15.10;21.80;;;;;;5044879;28;20517;-69
2023/05/24 08:05:13;;;;;;;12.88;3.53;;;15.20;21.90;;;;;;5049516;28;20101;-68
2023/05/24 08:07:40;;;;;;;22.48;3.58;;;14.90;19.00;;;;;;5067575;28;20041;-68
2023/05/24 08:10:08;;;;;;;15.30;3.38;;;14.40;21.00;;;;;;5048669;28;20037;-66
2023/05/24 08:12:34;;;;;;;14.98;3.22;;;14.10;29.30;;;;;;5066585;28;20052;-71
2023/05/24 08:14:59;;;;;;;13.93;2.65;;;14.10;34.80;;;;;;5067187;28;20052;-74
2023/05/24 08:17:26;;;;;;;13.20;3.03;;;14.30;34.60;;;;;;5050235;28;20517;-69
2023/05/24 08:19:52;;;;;;;17.33;2.95;;;14.80;33.50;;;;;;5050865;28;20135;-64
2023/05/24 08:22:18;;;;;;;14.98;3.72;;;15.00;23.70;;;;;;5065262;28;20603;-71
2023/05/24 08:24:44;;;;;;;19.70;3.53;;;15.40;23.90;;;;;;5050846;28;20044;-68
2023/05/24 08:27:10;;;;;;;17.75;2.55;;;15.30;21.50;;;;;;5066048;28;20499;-67
2023/05/24 08:29:36;;;;;;;13.57;2.53;;;14.90;19.80;;;;;;5062568;28;20051;-64
2023/05/24 08:32:08;;;;;;;12.48;2.47;;;14.40;23.60;;;;;;5028697;28;20107;-71
2023/05/24 08:34:37;;;;;;;18.55;2.85;;;14.10;28.80;;;;;;5046355;28;20094;-68
2023/05/24 08:37:08;;;;;;;9.85;2.88;;;13.80;35.00;;;;;;5067325;28;20568;-65
2023/05/24 08:39:33;;;;;;;9.20;2.58;;;13.40;31.70;;;;;;5064697;28;20053;-69
2023/05/24 08:42:00;;;;;;;10.65;2.50;;;13.10;31.70;;;;;;5066452;28;20040;-73
2023/05/24 08:44:28;;;;;;;11.80;2.90;;;13.00;38.70;;;;;;5046036;28;20049;-72
2023/05/24 08:46:55;;;;;;;10.10;2.38;;;12.80;34.60;;;;;;5047792;28;20048;-71
2023/05/24 08:49:20;;;;;;;12.25;2.55;;;12.70;38.90;;;;;;5033503;28;20051;-70
2023/05/24 08:51:47;;;;;;;14.05;2.60;;;12.70;45.10;;;;;;5033677;28;20485;-69
2023/05/24 08:54:14;;;;;;;9.05;2.65;;;12.70;45.70;;;;;;5066448;28;20550;-68
2023/05/24 08:56:40;;;;;;;14.75;3.55;;;12.70;51.40;;;;;;5049665;28;20537;-70
2023/05/24 08:59:10;;;;;;;18.00;3.40;;;12.70;53.20;;;;;;5067200;28;20578;-76
2023/05/24 09:01:39;;;;;;;15.32;2.88;;;12.70;52.60;;;;;;5047840;28;20040;-68
2023/05/24 09:04:05;;;;;;;13.43;2.90;;;12.70;50.50;;;;;;5043892;28;20048;-65
2023/05/24 09:06:32;;;;;;;9.88;3.10;;;12.70;40.30;;;;;;5065449;28;20298;-76
2023/05/24 09:09:00;;;;;;;14.93;3.13;;;12.60;37.30;;;;;;5048405;28;20044;-70
2023/05/24 09:11:30;;;;;;;10.15;2.95;;;12.60;41.30;;;;;;5054766;28;20147;-65
2023/05/24 09:13:57;;;;;;;15.20;2.78;;;12.70;40.10;;;;;;5065604;28;20683;-80
2023/05/24 09:16:22;;;;;;;8.23;2.47;;;12.80;39.90;;;;;;5046105;28;20045;-69
2023/05/24 09:18:48;;;;;;;9.38;2.47;;;12.90;36.60;;;;;;5049012;28;20048;-68
2023/05/24 09:21:14;;;;;;;15.45;3.45;;;12.90;36.40;;;;;;5063846;28;20487;-68
2023/05/24 09:23:41;;;;;;;15.13;2.42;;;13.00;40.20;;;;;;5046596;28;20141;-70
2023/05/24 09:26:08;;;;;;;10.50;2.95;;;13.30;40.00;;;;;;5064100;28;20075;-77
2023/05/24 09:28:34;;;;;;;11.18;3.42;;;13.40;38.60;;;;;;5048482;28;20098;-67
2023/05/24 09:31:02;;;;;;;16.13;2.78;;;13.40;35.70;;;;;;5065141;28;20421;-67
2023/05/24 09:33:32;;;;;;;14.32;3.13;;;13.30;33.10;;;;;;5042907;28;20445;-74
2023/05/24 09:35:59;;;;;;;9.55;3.00;;;13.20;32.40;;;;;;5064660;28;20051;-68
2023/05/24 09:38:26;;;;;;;15.48;3.13;;;13.10;38.80;;;;;;5065152;28;20131;-73
2023/05/24 09:41:00;;;;;;;14.73;2.78;;;13.10;41.80;;;;;;5048625;28;20075;-71
2023/05/24 09:43:29;;;;;;;17.05;3.00;;;13.10;39.70;;;;;;5048652;28;20081;-77
2023/05/24 09:45:56;;;;;;;10.27;2.67;;;13.20;34.30;;;;;;5056687;28;20086;-73
2023/05/24 09:48:23;;;;;;;14.55;2.90;;;13.20;34.00;;;;;;5091568;28;20049;-70
2023/05/24 09:51:08;;;;;;;17.58;3.20;;;13.30;31.00;;;;;;5060894;28;20067;-69
2023/05/24 09:53:35;;;;;;;16.42;4.10;;;13.30;32.60;;;;;;5061874;28;20092;-70
2023/05/24 09:56:09;;;;;;;10.35;2.67;;;13.30;34.90;;;;;;5064139;28;20518;-71
2023/05/24 09:58:35;;;;;;;7.78;2.60;;;13.40;40.80;;;;;;5059049;28;20047;-66
2023/05/24 10:01:06;;;;;;;20.42;3.70;;;13.40;41.30;;;;;;5069990;28;20044;-66
2023/05/24 10:03:32;;;;;;;16.45;3.45;;;13.80;40.00;;;;;;5064416;28;20045;-70
2023/05/24 10:06:00;;;;;;;14.05;3.20;;;14.10;40.10;;;;;;5065147;28;20052;-74
2023/05/24 10:08:26;;;;;;;17.38;3.65;;;14.50;35.10;;;;;;5057530;28;20044;-67
2023/05/24 10:10:54;;;;;;;14.55;2.88;;;14.80;35.20;;;;;;5051049;28;20037;-65
2023/05/24 10:13:22;;;;;;;12.27;2.67;;;14.90;31.70;;;;;;5043999;28;20049;-73
2023/05/24 10:15:47;;;;;;;18.23;3.47;;;15.10;32.70;;;;;;5043621;28;20150;-73
2023/05/24 10:18:13;;;;;;;16.13;3.28;;;15.20;27.50;;;;;;5047031;28;20114;-73
2023/05/24 10:20:42;;;;;;;14.60;3.03;;;15.20;30.00;;;;;;5046750;28;20053;-74
2023/05/24 10:23:09;;;;;;;15.40;2.90;;;15.10;28.50;;;;;;5052029;28;20036;-65
2023/05/24 10:25:39;;;;;;;14.30;2.78;;;15.20;24.80;;;;;;5053519;28;20476;-68
2023/05/24 10:28:11;;;;;;;18.65;3.42;;;15.10;28.90;;;;;;5069071;28;20459;-75
2023/05/24 10:30:55;;;;;;;19.95;3.00;;;15.10;29.30;;;;;;5058692;28;20039;-67
2023/05/24 10:33:23;;;;;;;10.32;2.90;;;15.20;26.30;;;;;;5082664;28;20051;-74
2023/05/24 10:35:50;;;;;;;14.82;3.00;;;15.50;34.20;;;;;;5042423;28;20384;-67
2023/05/24 10:38:19;;;;;;;12.27;2.70;;;15.60;25.30;;;;;;5066472;28;20047;-72
2023/05/24 10:40:45;;;;;;;11.75;2.83;;;15.40;24.40;;;;;;5066996;28;20485;-68
2023/05/24 10:43:11;;;;;;;20.65;3.50;;;15.30;26.10;;;;;;5068427;28;20055;-65
2023/05/24 10:45:39;;;;;;;12.60;2.72;;;15.30;27.80;;;;;;5066769;28;20042;-63
2023/05/24 10:48:14;;;;;;;12.23;2.90;;;15.30;31.10;;;;;;5051052;28;20058;-63
2023/05/24 10:50:43;;;;;;;15.95;2.67;;;15.30;29.50;;;;;;5066698;28;20040;-70
2023/05/24 10:53:18;;;;;;;9.18;2.17;;;15.40;25.60;;;;;;5066717;28;20487;-69
2023/05/24 10:55:58;;;;;;;8.75;2.80;;;15.40;22.70;;;;;;5067307;28;20075;-67
2023/05/24 10:58:34;;;;;;;14.38;2.75;;;15.50;24.20;;;;;;5049997;28;20114;-77
2023/05/24 11:01:00;;;;;;;10.18;3.17;;;15.70;23.80;;;;;;5061549;28;20040;-65
2023/05/24 11:03:32;;;;;;;11.25;2.67;;;15.60;24.60;;;;;;5066072;28;20476;-71
2023/05/24 11:05:58;;;;;;;15.10;3.08;;;15.60;26.70;;;;;;5093810;28;20044;-70
2023/05/24 11:08:30;;;;;;;11.30;2.40;;;15.60;29.30;;;;;;5066722;28;20044;-64
2023/05/24 11:11:03;;;;;;;11.30;2.50;;;15.70;23.90;;;;;;5062921;28;20582;-64
2023/05/24 11:13:30;;;;;;;11.27;3.47;;;15.60;20.30;;;;;;5051230;28;20074;-77
2023/05/24 11:15:56;;;;;;;13.85;2.53;;;15.40;24.50;;;;;;5066810;28;20048;-63
2023/05/24 11:18:22;;;;;;;14.98;2.45;;;15.10;17.80;;;;;;5067613;28;20047;-67
2023/05/24 11:20:49;;;;;;;10.10;2.42;;;14.80;22.30;;;;;;5065423;28;20056;-70
2023/05/24 11:23:15;;;;;;;13.40;2.50;;;14.70;27.70;;;;;;5067230;28;20514;-65
2023/05/24 11:25:42;;;;;;;11.02;2.42;;;14.70;30.80;;;;;;5032882;28;20044;-68
2023/05/24 11:28:11;;;;;;;12.98;3.30;;;14.80;34.20;;;;;;5066587;28;20039;-72
2023/05/24 11:30:46;;;;;;;10.38;2.55;;;14.90;30.90;;;;;;5066812;28;20147;-71
2023/05/24 11:33:16;;;;;;;17.55;2.70;;;15.00;29.20;;;;;;5065079;28;20055;-67
2023/05/24 11:35:42;;;;;;;13.27;2.67;;;15.00;25.10;;;;;;5074609;28;20401;-71
2023/05/24 11:38:12;;;;;;;10.52;2.50;;;15.00;30.10;;;;;;5052104;28;20498;-66
2023/05/24 11:40:45;;;;;;;5.75;2.20;;;15.20;24.50;;;;;;5067244;28;20208;-65
2023/05/24 11:43:21;;;;;;;12.45;2.22;;;15.30;29.30;;;;;;5067579;28;20028;-67
2023/05/24 11:45:51;;;;;;;10.70;2.47;;;15.30;22.90;;;;;;5067491;28;20075;-71
2023/05/24 11:48:18;;;;;;;15.02;2.67;;;15.30;28.30;;;;;;5066287;28;20124;-73
2023/05/24 11:50:48;;;;;;;13.95;3.33;;;15.30;29.80;;;;;;5049688;28;20059;-69
2023/05/24 11:53:19;;;;;;;13.55;3.17;;;15.40;25.20;;;;;;5067122;28;20415;-64
2023/05/24 11:55:47;;;;;;;13.02;2.85;;;15.10;23.40;;;;;;5064456;28;20084;-67
2023/05/24 11:58:19;;;;;;;19.10;3.50;;;14.90;32.00;;;;;;5050552;28;20048;-71
2023/05/24 12:00:46;;;;;;;13.82;3.28;;;14.90;34.60;;;;;;5066783;28;20371;-72
2023/05/24 12:03:12;;;;;;;15.02;3.40;;;14.90;36.00;;;;;;5066354;28;20089;-71
2023/05/24 12:05:38;;;;;;;12.02;2.80;;;14.90;31.90;;;;;;5067972;28;20036;-69
2023/05/24 12:08:06;;;;;;;18.67;3.08;;;14.80;32.00;;;;;;5082838;28;20110;-70
2023/05/24 12:10:37;;;;;;;13.85;3.33;;;14.70;36.20;;;;;;5070922;28;20040;-68
2023/05/24 12:13:17;;;;;;;12.18;2.80;;;14.70;34.90;;;;;;5050814;28;20077;-64
2023/05/24 12:15:43;;;;;;;13.32;2.55;;;14.70;33.20;;;;;;5068638;28;20035;-66
2023/05/24 12:18:20;;;;;;;12.52;2.95;;;14.90;39.20;;;;;;5067072;28;20452;-67
2023/05/24 12:20:50;;;;;;;11.48;3.05;;;15.10;35.60;;;;;;5065640;28;20051;-71
2023/05/24 12:23:20;;;;;;;15.98;2.72;;;15.10;26.40;;;;;;5047309;28;20045;-68
2023/05/24 12:25:46;;;;;;;12.63;2.75;;;15.10;28.00;;;;;;5059771;28;20926;-65
2023/05/24 12:28:12;;;;;;;9.32;2.55;;;15.30;27.10;;;;;;5079545;28;20040;-63
2023/05/24 12:30:42;;;;;;;10.40;2.55;;;15.40;25.00;;;;;;5065859;28;20490;-72
2023/05/24 12:33:11;;;;;;;13.00;3.25;;;15.50;27.30;;;;;;5051998;28;20498;-66
2023/05/24 12:35:41;;;;;;;10.73;2.38;;;15.70;30.30;;;;;;5065984;28;20036;-76
2023/05/24 12:38:10;;;;;;;13.90;2.60;;;15.60;19.70;;;;;;5067416;28;20052;-64
2023/05/24 12:40:38;;;;;;;10.88;2.45;;;15.60;23.60;;;;;;5066699;28;20043;-67